Kimolos, Greece
Current Conditions -  °F | °C
As of 2:20 PM on Saturday 20 Dec 2014 (Local Time) from LGSR Reporting Station
Few Clouds Few Clouds  
Wind Chill: 63°   Ceiling: Unl
Heat Index: 63°   Visibility: 6mi
Dew Point: 48°   Wind: 9mph
Humidity: 59%   Direction: 260°W
Pressure: 30.15"   Gusts: NA
Location:  36.79°N, 24.57°E
Report Text: LGSR 201120Z 26008KT 9999 FEW025 17/09 Q1021
Loading
Personal Weather Stations






























Interactive Weather Map New forecast layout! Learn more

10-Day Weather Forecast

Advertisements
Track Severe Weather on mobile